sensor_id;sensor_type;location;lat;lon;timestamp;P1;durP1;ratioP1;P2;durP2;ratioP2
21206;SDS011;10761;48.532;8.026;2023-04-09T00:01:02;6.60;;;5.90;;
21206;SDS011;10761;48.532;8.026;2023-04-09T00:03:31;7.40;;;6.32;;
21206;SDS011;10761;48.532;8.026;2023-04-09T00:05:57;7.57;;;6.05;;
21206;SDS011;10761;48.532;8.026;2023-04-09T00:08:23;6.82;;;6.13;;
21206;SDS011;10761;48.532;8.026;2023-04-09T00:10:49;8.25;;;6.88;;
21206;SDS011;10761;48.532;8.026;2023-04-09T00:13:15;8.07;;;5.95;;
21206;SDS011;10761;48.532;8.026;2023-04-09T00:15:42;7.18;;;6.47;;
21206;SDS011;10761;48.532;8.026;2023-04-09T00:18:08;8.10;;;6.43;;
21206;SDS011;10761;48.532;8.026;2023-04-09T00:20:33;8.07;;;6.82;;
21206;SDS011;10761;48.532;8.026;2023-04-09T00:22:59;8.90;;;6.95;;
21206;SDS011;10761;48.532;8.026;2023-04-09T00:25:24;6.90;;;6.18;;
21206;SDS011;10761;48.532;8.026;2023-04-09T00:27:50;7.18;;;6.22;;
21206;SDS011;10761;48.532;8.026;2023-04-09T00:30:16;7.25;;;6.55;;
21206;SDS011;10761;48.532;8.026;2023-04-09T00:32:41;8.13;;;6.97;;
21206;SDS011;10761;48.532;8.026;2023-04-09T00:35:07;11.50;;;6.75;;
21206;SDS011;10761;48.532;8.026;2023-04-09T00:37:33;7.93;;;6.68;;
21206;SDS011;10761;48.532;8.026;2023-04-09T00:39:59;8.30;;;6.50;;
21206;SDS011;10761;48.532;8.026;2023-04-09T00:42:25;7.22;;;6.55;;
21206;SDS011;10761;48.532;8.026;2023-04-09T00:44:51;7.95;;;6.28;;
21206;SDS011;10761;48.532;8.026;2023-04-09T00:47:16;7.25;;;6.38;;
21206;SDS011;10761;48.532;8.026;2023-04-09T00:49:42;9.00;;;6.72;;
21206;SDS011;10761;48.532;8.026;2023-04-09T00:52:08;7.68;;;6.80;;
21206;SDS011;10761;48.532;8.026;2023-04-09T00:54:34;7.47;;;6.75;;
21206;SDS011;10761;48.532;8.026;2023-04-09T00:57:00;7.30;;;6.60;;
21206;SDS011;10761;48.532;8.026;2023-04-09T00:59:26;7.82;;;6.55;;
21206;SDS011;10761;48.532;8.026;2023-04-09T01:01:52;8.00;;;6.32;;
21206;SDS011;10761;48.532;8.026;2023-04-09T01:04:18;8.95;;;6.70;;
21206;SDS011;10761;48.532;8.026;2023-04-09T01:06:52;7.07;;;6.35;;
21206;SDS011;10761;48.532;8.026;2023-04-09T01:09:33;7.40;;;6.55;;
21206;SDS011;10761;48.532;8.026;2023-04-09T01:12:11;7.72;;;6.55;;
21206;SDS011;10761;48.532;8.026;2023-04-09T01:14:54;7.38;;;6.47;;
21206;SDS011;10761;48.532;8.026;2023-04-09T01:17:33;8.38;;;6.38;;
21206;SDS011;10761;48.532;8.026;2023-04-09T01:23:17;9.07;;;7.20;;
21206;SDS011;10761;48.532;8.026;2023-04-09T01:28:58;7.07;;;6.20;;
21206;SDS011;10761;48.532;8.026;2023-04-09T01:31:26;9.25;;;7.20;;
21206;SDS011;10761;48.532;8.026;2023-04-09T01:33:54;7.03;;;6.32;;
21206;SDS011;10761;48.532;8.026;2023-04-09T01:36:21;9.15;;;6.70;;
21206;SDS011;10761;48.532;8.026;2023-04-09T01:38:50;7.82;;;6.88;;
21206;SDS011;10761;48.532;8.026;2023-04-09T01:41:17;7.80;;;6.85;;
21206;SDS011;10761;48.532;8.026;2023-04-09T01:43:50;8.18;;;6.95;;
21206;SDS011;10761;48.532;8.026;2023-04-09T01:46:17;8.52;;;7.20;;
21206;SDS011;10761;48.532;8.026;2023-04-09T01:48:44;7.85;;;6.85;;
21206;SDS011;10761;48.532;8.026;2023-04-09T01:51:10;8.75;;;7.32;;
21206;SDS011;10761;48.532;8.026;2023-04-09T01:53:40;8.02;;;7.22;;
21206;SDS011;10761;48.532;8.026;2023-04-09T01:56:06;9.25;;;7.68;;
21206;SDS011;10761;48.532;8.026;2023-04-09T01:58:33;8.80;;;7.85;;
21206;SDS011;10761;48.532;8.026;2023-04-09T02:01:04;8.45;;;7.20;;
21206;SDS011;10761;48.532;8.026;2023-04-09T02:03:46;9.15;;;7.80;;
21206;SDS011;10761;48.532;8.026;2023-04-09T02:08:47;8.88;;;7.72;;
21206;SDS011;10761;48.532;8.026;2023-04-09T02:11:14;10.23;;;8.00;;
21206;SDS011;10761;48.532;8.026;2023-04-09T02:13:41;8.57;;;7.53;;
21206;SDS011;10761;48.532;8.026;2023-04-09T02:16:08;9.60;;;8.18;;
21206;SDS011;10761;48.532;8.026;2023-04-09T02:18:36;9.45;;;8.02;;
21206;SDS011;10761;48.532;8.026;2023-04-09T02:21:01;10.93;;;7.90;;
21206;SDS011;10761;48.532;8.026;2023-04-09T02:23:28;10.18;;;8.52;;
21206;SDS011;10761;48.532;8.026;2023-04-09T02:25:56;10.27;;;8.45;;
21206;SDS011;10761;48.532;8.026;2023-04-09T02:28:21;8.10;;;7.30;;
21206;SDS011;10761;48.532;8.026;2023-04-09T02:30:47;11.05;;;7.63;;
21206;SDS011;10761;48.532;8.026;2023-04-09T02:33:13;9.68;;;7.70;;
21206;SDS011;10761;48.532;8.026;2023-04-09T02:35:38;9.60;;;8.23;;
21206;SDS011;10761;48.532;8.026;2023-04-09T02:38:04;10.77;;;8.88;;
21206;SDS011;10761;48.532;8.026;2023-04-09T02:40:30;11.88;;;8.63;;
21206;SDS011;10761;48.532;8.026;2023-04-09T02:42:55;9.77;;;8.70;;
21206;SDS011;10761;48.532;8.026;2023-04-09T02:45:22;9.40;;;8.10;;
21206;SDS011;10761;48.532;8.026;2023-04-09T02:47:47;9.88;;;8.15;;
21206;SDS011;10761;48.532;8.026;2023-04-09T02:50:13;8.90;;;7.82;;
21206;SDS011;10761;48.532;8.026;2023-04-09T02:52:38;8.02;;;7.18;;
21206;SDS011;10761;48.532;8.026;2023-04-09T02:55:04;9.27;;;6.85;;
21206;SDS011;10761;48.532;8.026;2023-04-09T02:57:30;8.68;;;7.40;;
21206;SDS011;10761;48.532;8.026;2023-04-09T02:59:57;12.43;;;7.82;;
21206;SDS011;10761;48.532;8.026;2023-04-09T03:02:23;9.98;;;7.72;;
21206;SDS011;10761;48.532;8.026;2023-04-09T03:04:48;8.40;;;6.93;;
21206;SDS011;10761;48.532;8.026;2023-04-09T03:07:14;9.27;;;7.40;;
21206;SDS011;10761;48.532;8.026;2023-04-09T03:09:40;10.50;;;7.57;;
21206;SDS011;10761;48.532;8.026;2023-04-09T03:12:05;11.43;;;8.52;;
21206;SDS011;10761;48.532;8.026;2023-04-09T03:14:31;11.75;;;8.52;;
21206;SDS011;10761;48.532;8.026;2023-04-09T03:16:56;10.55;;;8.93;;
21206;SDS011;10761;48.532;8.026;2023-04-09T03:19:22;11.48;;;8.68;;
21206;SDS011;10761;48.532;8.026;2023-04-09T03:21:48;9.77;;;8.65;;
21206;SDS011;10761;48.532;8.026;2023-04-09T03:24:14;10.93;;;9.38;;
21206;SDS011;10761;48.532;8.026;2023-04-09T03:26:40;10.45;;;8.75;;
21206;SDS011;10761;48.532;8.026;2023-04-09T03:29:06;12.65;;;9.70;;
21206;SDS011;10761;48.532;8.026;2023-04-09T03:31:32;9.60;;;8.25;;
21206;SDS011;10761;48.532;8.026;2023-04-09T03:33:57;10.18;;;9.07;;
21206;SDS011;10761;48.532;8.026;2023-04-09T03:36:23;11.63;;;9.88;;
21206;SDS011;10761;48.532;8.026;2023-04-09T03:38:49;11.52;;;9.50;;
21206;SDS011;10761;48.532;8.026;2023-04-09T03:41:15;13.02;;;10.45;;
21206;SDS011;10761;48.532;8.026;2023-04-09T03:43:40;12.05;;;9.45;;
21206;SDS011;10761;48.532;8.026;2023-04-09T03:46:15;11.82;;;10.05;;
21206;SDS011;10761;48.532;8.026;2023-04-09T03:48:42;15.93;;;10.48;;
21206;SDS011;10761;48.532;8.026;2023-04-09T03:51:12;12.45;;;10.65;;
21206;SDS011;10761;48.532;8.026;2023-04-09T03:53:38;12.77;;;10.80;;
21206;SDS011;10761;48.532;8.026;2023-04-09T03:56:04;12.43;;;10.30;;
21206;SDS011;10761;48.532;8.026;2023-04-09T03:58:30;13.43;;;11.45;;
21206;SDS011;10761;48.532;8.026;2023-04-09T04:00:56;13.27;;;10.73;;
21206;SDS011;10761;48.532;8.026;2023-04-09T04:03:21;15.25;;;11.82;;
21206;SDS011;10761;48.532;8.026;2023-04-09T04:05:47;16.63;;;12.50;;
21206;SDS011;10761;48.532;8.026;2023-04-09T04:08:13;14.88;;;11.43;;
21206;SDS011;10761;48.532;8.026;2023-04-09T04:10:38;15.30;;;12.45;;
21206;SDS011;10761;48.532;8.026;2023-04-09T04:13:05;15.48;;;12.30;;
21206;SDS011;10761;48.532;8.026;2023-04-09T04:15:32;14.02;;;11.77;;
21206;SDS011;10761;48.532;8.026;2023-04-09T04:17:58;14.68;;;12.32;;
21206;SDS011;10761;48.532;8.026;2023-04-09T04:20:23;15.02;;;12.32;;
21206;SDS011;10761;48.532;8.026;2023-04-09T04:22:50;16.95;;;12.52;;
21206;SDS011;10761;48.532;8.026;2023-04-09T04:25:16;15.13;;;11.68;;
21206;SDS011;10761;48.532;8.026;2023-04-09T04:27:41;15.93;;;12.48;;
21206;SDS011;10761;48.532;8.026;2023-04-09T04:30:07;15.43;;;11.77;;
21206;SDS011;10761;48.532;8.026;2023-04-09T04:32:33;16.33;;;12.57;;
21206;SDS011;10761;48.532;8.026;2023-04-09T04:34:59;14.30;;;12.05;;
21206;SDS011;10761;48.532;8.026;2023-04-09T04:37:24;17.02;;;13.38;;
21206;SDS011;10761;48.532;8.026;2023-04-09T04:39:50;17.98;;;13.82;;
21206;SDS011;10761;48.532;8.026;2023-04-09T04:42:16;16.73;;;13.25;;
21206;SDS011;10761;48.532;8.026;2023-04-09T04:44:42;16.92;;;13.70;;
21206;SDS011;10761;48.532;8.026;2023-04-09T04:47:08;16.48;;;12.98;;
21206;SDS011;10761;48.532;8.026;2023-04-09T04:49:34;16.40;;;12.40;;
21206;SDS011;10761;48.532;8.026;2023-04-09T04:52:00;17.83;;;12.93;;
21206;SDS011;10761;48.532;8.026;2023-04-09T04:54:25;15.32;;;12.38;;
21206;SDS011;10761;48.532;8.026;2023-04-09T04:56:51;15.77;;;13.02;;
21206;SDS011;10761;48.532;8.026;2023-04-09T04:59:17;15.10;;;12.85;;
21206;SDS011;10761;48.532;8.026;2023-04-09T05:01:42;15.50;;;13.00;;
21206;SDS011;10761;48.532;8.026;2023-04-09T05:04:08;16.60;;;13.55;;
21206;SDS011;10761;48.532;8.026;2023-04-09T05:06:33;17.63;;;14.48;;
21206;SDS011;10761;48.532;8.026;2023-04-09T05:08:59;18.67;;;14.27;;
21206;SDS011;10761;48.532;8.026;2023-04-09T05:11:25;18.95;;;14.02;;
21206;SDS011;10761;48.532;8.026;2023-04-09T05:13:51;16.33;;;14.23;;
21206;SDS011;10761;48.532;8.026;2023-04-09T05:16:17;15.52;;;12.98;;
21206;SDS011;10761;48.532;8.026;2023-04-09T05:18:44;14.23;;;12.70;;
21206;SDS011;10761;48.532;8.026;2023-04-09T05:21:10;15.18;;;12.82;;
21206;SDS011;10761;48.532;8.026;2023-04-09T05:23:36;15.50;;;13.13;;
21206;SDS011;10761;48.532;8.026;2023-04-09T05:26:01;17.75;;;13.00;;
21206;SDS011;10761;48.532;8.026;2023-04-09T05:28:27;15.35;;;12.82;;
21206;SDS011;10761;48.532;8.026;2023-04-09T05:30:53;18.45;;;12.85;;
21206;SDS011;10761;48.532;8.026;2023-04-09T05:33:18;17.85;;;12.10;;
21206;SDS011;10761;48.532;8.026;2023-04-09T05:35:44;15.05;;;11.80;;
21206;SDS011;10761;48.532;8.026;2023-04-09T05:38:10;16.33;;;12.50;;
21206;SDS011;10761;48.532;8.026;2023-04-09T05:40:37;16.25;;;12.52;;
21206;SDS011;10761;48.532;8.026;2023-04-09T05:43:03;14.00;;;11.43;;
21206;SDS011;10761;48.532;8.026;2023-04-09T05:45:28;16.27;;;12.68;;
21206;SDS011;10761;48.532;8.026;2023-04-09T05:47:54;15.70;;;12.65;;
21206;SDS011;10761;48.532;8.026;2023-04-09T05:50:20;16.70;;;13.70;;
21206;SDS011;10761;48.532;8.026;2023-04-09T05:52:46;16.65;;;12.98;;
21206;SDS011;10761;48.532;8.026;2023-04-09T05:55:11;17.35;;;12.93;;
21206;SDS011;10761;48.532;8.026;2023-04-09T05:57:37;15.32;;;13.13;;
21206;SDS011;10761;48.532;8.026;2023-04-09T06:00:03;14.68;;;12.50;;
21206;SDS011;10761;48.532;8.026;2023-04-09T06:02:29;16.45;;;12.60;;
21206;SDS011;10761;48.532;8.026;2023-04-09T06:04:54;16.45;;;12.30;;
21206;SDS011;10761;48.532;8.026;2023-04-09T06:07:21;15.73;;;12.77;;
21206;SDS011;10761;48.532;8.026;2023-04-09T06:09:46;15.18;;;12.70;;
21206;SDS011;10761;48.532;8.026;2023-04-09T06:12:12;15.82;;;13.02;;
21206;SDS011;10761;48.532;8.026;2023-04-09T06:14:38;15.48;;;13.35;;
21206;SDS011;10761;48.532;8.026;2023-04-09T06:17:03;15.45;;;12.75;;
21206;SDS011;10761;48.532;8.026;2023-04-09T06:19:29;15.10;;;12.52;;
21206;SDS011;10761;48.532;8.026;2023-04-09T06:21:55;14.23;;;12.73;;
21206;SDS011;10761;48.532;8.026;2023-04-09T06:24:21;13.00;;;11.65;;
21206;SDS011;10761;48.532;8.026;2023-04-09T06:26:47;16.25;;;13.10;;
21206;SDS011;10761;48.532;8.026;2023-04-09T06:29:12;12.88;;;11.48;;
21206;SDS011;10761;48.532;8.026;2023-04-09T06:31:38;14.10;;;12.23;;
21206;SDS011;10761;48.532;8.026;2023-04-09T06:34:03;14.05;;;11.60;;
21206;SDS011;10761;48.532;8.026;2023-04-09T06:36:29;13.98;;;11.95;;
21206;SDS011;10761;48.532;8.026;2023-04-09T06:38:55;11.98;;;10.68;;
21206;SDS011;10761;48.532;8.026;2023-04-09T06:41:21;13.35;;;11.20;;
21206;SDS011;10761;48.532;8.026;2023-04-09T06:43:47;12.80;;;11.32;;
21206;SDS011;10761;48.532;8.026;2023-04-09T06:46:13;12.52;;;11.23;;
21206;SDS011;10761;48.532;8.026;2023-04-09T06:48:41;12.48;;;10.57;;
21206;SDS011;10761;48.532;8.026;2023-04-09T06:51:08;13.45;;;11.15;;
21206;SDS011;10761;48.532;8.026;2023-04-09T06:53:35;12.43;;;10.82;;
21206;SDS011;10761;48.532;8.026;2023-04-09T06:56:01;13.65;;;11.60;;
21206;SDS011;10761;48.532;8.026;2023-04-09T06:58:27;14.13;;;11.40;;
21206;SDS011;10761;48.532;8.026;2023-04-09T07:00:52;11.80;;;10.55;;
21206;SDS011;10761;48.532;8.026;2023-04-09T07:03:18;14.48;;;11.52;;
21206;SDS011;10761;48.532;8.026;2023-04-09T07:05:44;13.73;;;12.05;;
21206;SDS011;10761;48.532;8.026;2023-04-09T07:08:10;14.25;;;11.35;;
21206;SDS011;10761;48.532;8.026;2023-04-09T07:10:36;12.07;;;10.68;;
21206;SDS011;10761;48.532;8.026;2023-04-09T07:13:02;13.73;;;11.02;;
21206;SDS011;10761;48.532;8.026;2023-04-09T07:15:27;12.25;;;10.25;;
21206;SDS011;10761;48.532;8.026;2023-04-09T07:17:53;13.48;;;11.15;;
21206;SDS011;10761;48.532;8.026;2023-04-09T07:20:19;12.77;;;10.63;;
21206;SDS011;10761;48.532;8.026;2023-04-09T07:22:44;11.57;;;9.90;;
21206;SDS011;10761;48.532;8.026;2023-04-09T07:25:10;11.32;;;10.23;;
21206;SDS011;10761;48.532;8.026;2023-04-09T07:27:36;12.35;;;11.13;;
21206;SDS011;10761;48.532;8.026;2023-04-09T07:30:01;13.65;;;12.07;;
21206;SDS011;10761;48.532;8.026;2023-04-09T07:32:27;12.85;;;11.40;;
21206;SDS011;10761;48.532;8.026;2023-04-09T07:34:53;14.25;;;11.75;;
21206;SDS011;10761;48.532;8.026;2023-04-09T07:37:20;12.85;;;11.30;;
21206;SDS011;10761;48.532;8.026;2023-04-09T07:39:46;13.23;;;11.35;;
21206;SDS011;10761;48.532;8.026;2023-04-09T07:42:12;12.55;;;10.73;;
21206;SDS011;10761;48.532;8.026;2023-04-09T07:44:38;11.48;;;10.27;;
21206;SDS011;10761;48.532;8.026;2023-04-09T07:47:04;13.00;;;10.18;;
21206;SDS011;10761;48.532;8.026;2023-04-09T07:49:30;11.63;;;10.43;;
21206;SDS011;10761;48.532;8.026;2023-04-09T07:51:57;12.82;;;9.82;;
21206;SDS011;10761;48.532;8.026;2023-04-09T07:54:23;12.43;;;10.57;;
21206;SDS011;10761;48.532;8.026;2023-04-09T07:56:49;10.80;;;9.70;;
21206;SDS011;10761;48.532;8.026;2023-04-09T07:59:15;11.60;;;10.18;;
21206;SDS011;10761;48.532;8.026;2023-04-09T08:01:41;10.80;;;9.57;;
21206;SDS011;10761;48.532;8.026;2023-04-09T08:04:07;11.40;;;10.20;;
21206;SDS011;10761;48.532;8.026;2023-04-09T08:06:33;11.30;;;10.10;;
21206;SDS011;10761;48.532;8.026;2023-04-09T08:08:59;10.27;;;9.07;;
21206;SDS011;10761;48.532;8.026;2023-04-09T08:11:25;10.15;;;9.15;;
21206;SDS011;10761;48.532;8.026;2023-04-09T08:13:51;8.95;;;8.05;;
21206;SDS011;10761;48.532;8.026;2023-04-09T08:16:17;10.25;;;9.15;;
21206;SDS011;10761;48.532;8.026;2023-04-09T08:18:43;10.20;;;9.20;;
21206;SDS011;10761;48.532;8.026;2023-04-09T08:21:08;10.43;;;9.32;;
21206;SDS011;10761;48.532;8.026;2023-04-09T08:23:34;9.32;;;8.38;;
21206;SDS011;10761;48.532;8.026;2023-04-09T08:26:00;9.90;;;8.40;;
21206;SDS011;10761;48.532;8.026;2023-04-09T08:28:25;9.52;;;8.63;;
21206;SDS011;10761;48.532;8.026;2023-04-09T08:30:51;9.18;;;8.00;;
21206;SDS011;10761;48.532;8.026;2023-04-09T08:33:17;7.32;;;6.63;;
21206;SDS011;10761;48.532;8.026;2023-04-09T08:35:43;7.22;;;6.53;;
21206;SDS011;10761;48.532;8.026;2023-04-09T08:38:08;7.93;;;6.95;;
21206;SDS011;10761;48.532;8.026;2023-04-09T08:40:34;7.82;;;6.60;;
21206;SDS011;10761;48.532;8.026;2023-04-09T08:43:00;6.25;;;5.65;;
21206;SDS011;10761;48.532;8.026;2023-04-09T08:45:30;6.53;;;5.90;;
21206;SDS011;10761;48.532;8.026;2023-04-09T08:47:55;6.53;;;5.93;;
21206;SDS011;10761;48.532;8.026;2023-04-09T08:50:25;6.45;;;5.57;;
21206;SDS011;10761;48.532;8.026;2023-04-09T08:52:51;6.38;;;5.43;;
21206;SDS011;10761;48.532;8.026;2023-04-09T08:55:17;6.38;;;5.05;;
21206;SDS011;10761;48.532;8.026;2023-04-09T08:57:43;5.53;;;5.03;;
21206;SDS011;10761;48.532;8.026;2023-04-09T09:00:08;5.63;;;4.97;;
21206;SDS011;10761;48.532;8.026;2023-04-09T09:02:34;5.07;;;4.57;;
21206;SDS011;10761;48.532;8.026;2023-04-09T09:05:00;6.88;;;5.03;;
21206;SDS011;10761;48.532;8.026;2023-04-09T09:07:26;5.25;;;4.75;;
21206;SDS011;10761;48.532;8.026;2023-04-09T09:09:56;5.45;;;4.95;;
21206;SDS011;10761;48.532;8.026;2023-04-09T09:12:33;5.28;;;4.78;;
21206;SDS011;10761;48.532;8.026;2023-04-09T09:15:05;7.00;;;4.40;;
21206;SDS011;10761;48.532;8.026;2023-04-09T09:17:52;5.20;;;4.60;;
21206;SDS011;10761;48.532;8.026;2023-04-09T09:20:19;5.13;;;4.63;;
21206;SDS011;10761;48.532;8.026;2023-04-09T09:22:49;4.70;;;4.20;;
21206;SDS011;10761;48.532;8.026;2023-04-09T09:25:16;4.55;;;3.90;;
21206;SDS011;10761;48.532;8.026;2023-04-09T09:27:42;4.97;;;3.97;;
21206;SDS011;10761;48.532;8.026;2023-04-09T09:30:08;4.20;;;3.80;;
21206;SDS011;10761;48.532;8.026;2023-04-09T09:32:44;3.90;;;3.60;;
21206;SDS011;10761;48.532;8.026;2023-04-09T09:35:10;3.88;;;3.30;;
21206;SDS011;10761;48.532;8.026;2023-04-09T09:37:36;3.58;;;3.28;;
21206;SDS011;10761;48.532;8.026;2023-04-09T09:40:01;3.97;;;3.60;;
21206;SDS011;10761;48.532;8.026;2023-04-09T09:42:28;4.15;;;3.75;;
21206;SDS011;10761;48.532;8.026;2023-04-09T09:44:54;4.38;;;3.50;;
21206;SDS011;10761;48.532;8.026;2023-04-09T09:47:20;3.58;;;3.28;;
21206;SDS011;10761;48.532;8.026;2023-04-09T09:49:50;4.43;;;3.50;;
21206;SDS011;10761;48.532;8.026;2023-04-09T09:52:25;3.15;;;2.85;;
21206;SDS011;10761;48.532;8.026;2023-04-09T09:54:51;3.72;;;3.42;;
21206;SDS011;10761;48.532;8.026;2023-04-09T09:57:19;3.30;;;2.83;;
21206;SDS011;10761;48.532;8.026;2023-04-09T09:59:54;3.13;;;2.83;;
21206;SDS011;10761;48.532;8.026;2023-04-09T10:02:27;3.70;;;3.40;;
21206;SDS011;10761;48.532;8.026;2023-04-09T10:04:59;4.18;;;3.08;;
21206;SDS011;10761;48.532;8.026;2023-04-09T10:07:25;4.30;;;3.70;;
21206;SDS011;10761;48.532;8.026;2023-04-09T10:09:53;3.63;;;3.30;;
21206;SDS011;10761;48.532;8.026;2023-04-09T10:12:20;5.00;;;4.50;;
21206;SDS011;10761;48.532;8.026;2023-04-09T10:14:50;3.75;;;3.35;;
21206;SDS011;10761;48.532;8.026;2023-04-09T10:17:17;3.80;;;3.20;;
21206;SDS011;10761;48.532;8.026;2023-04-09T10:19:46;3.47;;;3.17;;
21206;SDS011;10761;48.532;8.026;2023-04-09T10:22:25;4.43;;;3.67;;
21206;SDS011;10761;48.532;8.026;2023-04-09T10:24:53;3.50;;;3.20;;
21206;SDS011;10761;48.532;8.026;2023-04-09T10:27:19;3.55;;;3.22;;
21206;SDS011;10761;48.532;8.026;2023-04-09T10:29:46;3.60;;;3.30;;
21206;SDS011;10761;48.532;8.026;2023-04-09T10:32:16;4.70;;;3.17;;
21206;SDS011;10761;48.532;8.026;2023-04-09T10:34:47;3.10;;;2.90;;
21206;SDS011;10761;48.532;8.026;2023-04-09T10:37:24;3.40;;;3.10;;
21206;SDS011;10761;48.532;8.026;2023-04-09T10:39:51;3.30;;;3.00;;
21206;SDS011;10761;48.532;8.026;2023-04-09T10:42:21;3.30;;;3.00;;
21206;SDS011;10761;48.532;8.026;2023-04-09T10:47:31;2.90;;;2.70;;
21206;SDS011;10761;48.532;8.026;2023-04-09T10:49:59;3.50;;;3.20;;
21206;SDS011;10761;48.532;8.026;2023-04-09T10:52:52;3.70;;;3.30;;
21206;SDS011;10761;48.532;8.026;2023-04-09T10:58:06;3.30;;;3.00;;
21206;SDS011;10761;48.532;8.026;2023-04-09T11:00:35;3.35;;;3.05;;
21206;SDS011;10761;48.532;8.026;2023-04-09T11:05:43;3.92;;;3.50;;
21206;SDS011;10761;48.532;8.026;2023-04-09T11:08:17;5.38;;;3.33;;
21206;SDS011;10761;48.532;8.026;2023-04-09T11:10:43;4.15;;;3.75;;
21206;SDS011;10761;48.532;8.026;2023-04-09T11:13:13;3.85;;;3.10;;
21206;SDS011;10761;48.532;8.026;2023-04-09T11:15:40;4.18;;;3.25;;
21206;SDS011;10761;48.532;8.026;2023-04-09T11:18:06;3.80;;;3.50;;
21206;SDS011;10761;48.532;8.026;2023-04-09T11:20:33;4.15;;;3.67;;
21206;SDS011;10761;48.532;8.026;2023-04-09T11:23:00;3.55;;;3.25;;
21206;SDS011;10761;48.532;8.026;2023-04-09T11:25:28;3.75;;;3.45;;
21206;SDS011;10761;48.532;8.026;2023-04-09T11:27:57;3.97;;;3.60;;
21206;SDS011;10761;48.532;8.026;2023-04-09T11:30:23;3.33;;;3.03;;
21206;SDS011;10761;48.532;8.026;2023-04-09T11:32:50;3.50;;;3.20;;
21206;SDS011;10761;48.532;8.026;2023-04-09T11:35:19;3.50;;;3.20;;
21206;SDS011;10761;48.532;8.026;2023-04-09T11:37:46;4.03;;;3.70;;
21206;SDS011;10761;48.532;8.026;2023-04-09T11:42:41;3.50;;;3.20;;
21206;SDS011;10761;48.532;8.026;2023-04-09T11:45:08;4.32;;;3.25;;
21206;SDS011;10761;48.532;8.026;2023-04-09T11:47:35;3.55;;;3.20;;
21206;SDS011;10761;48.532;8.026;2023-04-09T11:50:01;3.65;;;3.35;;
21206;SDS011;10761;48.532;8.026;2023-04-09T11:52:27;3.78;;;3.47;;
21206;SDS011;10761;48.532;8.026;2023-04-09T11:54:58;3.75;;;3.45;;
21206;SDS011;10761;48.532;8.026;2023-04-09T11:57:34;3.97;;;3.65;;
21206;SDS011;10761;48.532;8.026;2023-04-09T12:00:07;3.45;;;3.20;;
21206;SDS011;10761;48.532;8.026;2023-04-09T12:02:42;3.90;;;3.50;;
21206;SDS011;10761;48.532;8.026;2023-04-09T12:05:12;4.60;;;3.67;;
21206;SDS011;10761;48.532;8.026;2023-04-09T12:07:58;4.45;;;4.05;;
21206;SDS011;10761;48.532;8.026;2023-04-09T12:10:32;3.60;;;3.25;;
21206;SDS011;10761;48.532;8.026;2023-04-09T12:13:09;3.78;;;3.47;;
21206;SDS011;10761;48.532;8.026;2023-04-09T12:15:36;4.45;;;3.67;;
21206;SDS011;10761;48.532;8.026;2023-04-09T12:18:03;3.95;;;3.65;;
21206;SDS011;10761;48.532;8.026;2023-04-09T12:20:33;3.80;;;3.50;;
21206;SDS011;10761;48.532;8.026;2023-04-09T12:23:01;3.65;;;3.35;;
21206;SDS011;10761;48.532;8.026;2023-04-09T12:25:28;3.80;;;3.50;;
21206;SDS011;10761;48.532;8.026;2023-04-09T12:27:55;4.88;;;4.22;;
21206;SDS011;10761;48.532;8.026;2023-04-09T12:30:22;5.65;;;4.53;;
21206;SDS011;10761;48.532;8.026;2023-04-09T12:32:48;5.18;;;4.68;;
21206;SDS011;10761;48.532;8.026;2023-04-09T12:35:14;4.75;;;4.35;;
21206;SDS011;10761;48.532;8.026;2023-04-09T12:37:40;4.45;;;4.05;;
21206;SDS011;10761;48.532;8.026;2023-04-09T12:40:06;5.13;;;4.30;;
21206;SDS011;10761;48.532;8.026;2023-04-09T12:42:32;5.93;;;4.13;;
21206;SDS011;10761;48.532;8.026;2023-04-09T12:44:58;4.60;;;4.10;;
21206;SDS011;10761;48.532;8.026;2023-04-09T12:47:23;4.03;;;3.70;;
21206;SDS011;10761;48.532;8.026;2023-04-09T12:49:49;4.63;;;3.97;;
21206;SDS011;10761;48.532;8.026;2023-04-09T12:52:15;4.10;;;3.70;;
21206;SDS011;10761;48.532;8.026;2023-04-09T12:54:42;4.60;;;4.20;;
21206;SDS011;10761;48.532;8.026;2023-04-09T12:57:08;3.97;;;3.67;;
21206;SDS011;10761;48.532;8.026;2023-04-09T12:59:34;3.65;;;3.35;;
21206;SDS011;10761;48.532;8.026;2023-04-09T13:02:00;3.67;;;3.38;;
21206;SDS011;10761;48.532;8.026;2023-04-09T13:04:26;5.47;;;3.85;;
21206;SDS011;10761;48.532;8.026;2023-04-09T13:06:51;3.97;;;3.67;;
21206;SDS011;10761;48.532;8.026;2023-04-09T13:09:17;4.40;;;4.00;;
21206;SDS011;10761;48.532;8.026;2023-04-09T13:11:42;4.72;;;4.28;;
21206;SDS011;10761;48.532;8.026;2023-04-09T13:14:08;3.88;;;3.58;;
21206;SDS011;10761;48.532;8.026;2023-04-09T13:16:38;4.65;;;4.22;;
21206;SDS011;10761;48.532;8.026;2023-04-09T13:19:05;4.82;;;4.30;;
21206;SDS011;10761;48.532;8.026;2023-04-09T13:21:31;4.82;;;4.43;;
21206;SDS011;10761;48.532;8.026;2023-04-09T13:23:57;4.20;;;3.80;;
21206;SDS011;10761;48.532;8.026;2023-04-09T13:26:22;4.00;;;3.67;;
21206;SDS011;10761;48.532;8.026;2023-04-09T13:28:48;4.28;;;3.88;;
21206;SDS011;10761;48.532;8.026;2023-04-09T13:31:15;3.70;;;3.40;;
21206;SDS011;10761;48.532;8.026;2023-04-09T13:33:41;4.22;;;3.83;;
21206;SDS011;10761;48.532;8.026;2023-04-09T13:36:07;3.70;;;3.40;;
21206;SDS011;10761;48.532;8.026;2023-04-09T13:38:32;4.60;;;4.20;;
21206;SDS011;10761;48.532;8.026;2023-04-09T13:40:58;4.10;;;3.70;;
21206;SDS011;10761;48.532;8.026;2023-04-09T13:43:24;3.80;;;3.47;;
21206;SDS011;10761;48.532;8.026;2023-04-09T13:45:52;3.63;;;3.33;;
21206;SDS011;10761;48.532;8.026;2023-04-09T13:48:19;3.50;;;3.20;;
21206;SDS011;10761;48.532;8.026;2023-04-09T13:50:45;3.70;;;3.40;;
21206;SDS011;10761;48.532;8.026;2023-04-09T13:53:11;3.53;;;3.22;;
21206;SDS011;10761;48.532;8.026;2023-04-09T13:55:37;3.30;;;3.00;;
21206;SDS011;10761;48.532;8.026;2023-04-09T13:58:03;3.42;;;3.13;;
21206;SDS011;10761;48.532;8.026;2023-04-09T14:00:29;3.00;;;2.80;;
21206;SDS011;10761;48.532;8.026;2023-04-09T14:02:55;3.42;;;2.88;;
21206;SDS011;10761;48.532;8.026;2023-04-09T14:05:21;4.00;;;3.60;;
21206;SDS011;10761;48.532;8.026;2023-04-09T14:07:47;3.47;;;3.17;;
21206;SDS011;10761;48.532;8.026;2023-04-09T14:10:12;3.42;;;3.17;;
21206;SDS011;10761;48.532;8.026;2023-04-09T14:12:38;3.28;;;3.03;;
21206;SDS011;10761;48.532;8.026;2023-04-09T14:15:04;3.60;;;3.05;;
21206;SDS011;10761;48.532;8.026;2023-04-09T14:17:30;3.72;;;3.42;;
21206;SDS011;10761;48.532;8.026;2023-04-09T14:19:56;3.60;;;3.30;;
21206;SDS011;10761;48.532;8.026;2023-04-09T14:22:23;4.32;;;3.20;;
21206;SDS011;10761;48.532;8.026;2023-04-09T14:24:49;3.10;;;2.90;;
21206;SDS011;10761;48.532;8.026;2023-04-09T14:27:15;3.60;;;3.30;;
21206;SDS011;10761;48.532;8.026;2023-04-09T14:29:40;4.20;;;3.20;;
21206;SDS011;10761;48.532;8.026;2023-04-09T14:32:06;3.47;;;3.17;;
21206;SDS011;10761;48.532;8.026;2023-04-09T14:34:32;3.38;;;3.08;;
21206;SDS011;10761;48.532;8.026;2023-04-09T14:36:57;3.72;;;3.42;;
21206;SDS011;10761;48.532;8.026;2023-04-09T14:39:23;3.70;;;3.40;;
21206;SDS011;10761;48.532;8.026;2023-04-09T14:41:49;3.17;;;2.97;;
21206;SDS011;10761;48.532;8.026;2023-04-09T14:44:15;4.25;;;3.72;;
21206;SDS011;10761;48.532;8.026;2023-04-09T14:46:41;3.88;;;3.47;;
21206;SDS011;10761;48.532;8.026;2023-04-09T14:49:07;3.67;;;3.35;;
21206;SDS011;10761;48.532;8.026;2023-04-09T14:51:33;4.32;;;3.92;;
21206;SDS011;10761;48.532;8.026;2023-04-09T14:53:59;3.20;;;2.90;;
21206;SDS011;10761;48.532;8.026;2023-04-09T14:56:25;2.90;;;2.70;;